SCRM

Teniente Rodolfo Marsh Martin Base

Airport
ICAO code
SCRM
IATA Code
TNM
Summary
ICAO Region
CARSAM
ICAO Territory
Location

King George Island, Antartica commune

Serving
Isla Rey Jorge
Elevation
147 ft
Coordinates
62° 11' 27" S , 58° 59' 12" W
KCC
Metar
SCRM 211300Z 29011KT 0400 FZFG VV002 M03/M03 Q0993 TEMPO 1600 BR OVC005

Chilean administered airport on King George Island, Antarctica.

Climatology

Polar climate (Köppen climate classification EF)

Runways

Designator Length Width Surface Rops
11/29 1292 38 GRE No/No

Airport map

Aerial View

SKYbrary Partners:

Safety knowledge contributed by: